Ocean Voyager — DJFS2 — position and weather

sailwx.info

Track history (hours):
 
Tides and Currents Weather Stations Pressure Air Temp Water Temp Dewpoint Dewpoint Depression Visibility Wind Speed Wind Dir Waves Ship Positions

Ocean Voyager

Last reported at 2018-Jan-19 15:31 UTC. Time now 2018-Jan-19 15:44 UTC.
Position N 51°26' E 003°39'.

Length 107 m; draft 8.1 m.

Type: Cargo ship. MMSI: 218615000.

Date/timePositionNaut miles runAvg speedWind from/ knotsBaromVisibWave heightAir tempDewpointWater temp
2018-Jan-19 15:31N 51°26' E 003°39'4 8.0
2018-Jan-19 15:00N 51°27' E 003°32'5 9.9
2018-Jan-19 14:30N 51°31' E 003°27'4 8.6
2018-Jan-19 14:00N 51°35' E 003°24'5 9.9
2018-Jan-19 13:29N 51°39' E 003°20'4 8.9
2018-Jan-19 13:00N 51°43' E 003°17'3 6.6
2018-Jan-19 12:29N 51°46' E 003°18'3 2.6
2018-Jan-19 11:19N 51°48' E 003°23'0 0.0
2018-Jan-19 10:58N 51°48' E 003°23'0 0.0
2018-Jan-18 18:15N 51°48' E 003°23'1 3.7
2018-Jan-18 17:59N 51°48' E 003°21'4 9.1
2018-Jan-18 17:30N 51°47' E 003°14'  
Track history (hours):
 
Tides and Currents Weather Stations Pressure Air Temp Water Temp Dewpoint Dewpoint Depression Visibility Wind Speed Wind Dir Waves Ship Positions

Ocean Voyager

Last reported at 2018-Jan-19 15:31 UTC. Time now 2018-Jan-19 15:44 UTC.
Position N 51°26' E 003°39'.

Length 107 m; draft 8.1 m.

Type: Cargo ship. MMSI: 218615000.

Date/timePositionNaut miles runAvg speedWind from/ knotsBaromVisibWave heightAir tempDewpointWater temp
2018-Jan-19 15:31N 51°26' E 003°39'4 8.0
2018-Jan-19 15:00N 51°27' E 003°32'5 9.9
2018-Jan-19 14:30N 51°31' E 003°27'4 8.6
2018-Jan-19 14:00N 51°35' E 003°24'5 9.9
2018-Jan-19 13:29N 51°39' E 003°20'4 8.9
2018-Jan-19 13:00N 51°43' E 003°17'3 6.6
2018-Jan-19 12:29N 51°46' E 003°18'3 2.6
2018-Jan-19 11:19N 51°48' E 003°23'0 0.0
2018-Jan-19 10:58N 51°48' E 003°23'0 0.0
2018-Jan-18 18:15N 51°48' E 003°23'1 3.7
2018-Jan-18 17:59N 51°48' E 003°21'4 9.1
2018-Jan-18 17:30N 51°47' E 003°14'  

Dump ship's entire track history